Time;durP1;ratioP1;P1;durP2;ratioP2;P2;SDS_P1;SDS_P2;PMS_P1;PMS_P2;Temp;Humidity;BMP_temperature;BMP_pressure;BME280_temperature;BME280_humidity;BME280_pressure;Samples;Min_cycle;Max_cycle;Signal;HPM_P1;HPM_P2
2022/09/10 00:07:55;;;;;;;4.93;0.90;;;;;;;14.65;100.00;100155.69;21075267;28;20048;-79
2022/09/10 00:17:56;;;;;;;3.95;0.93;;;;;;;14.72;100.00;100153.72;21074593;28;20090;-80
2022/09/10 00:27:59;;;;;;;5.18;0.85;;;;;;;14.62;100.00;100154.03;21091051;28;20063;-80
2022/09/10 00:38:00;;;;;;;2.72;0.80;;;;;;;14.66;100.00;100151.28;21071506;28;20048;-80
2022/09/10 00:48:02;;;;;;;4.45;1.33;;;;;;;14.72;100.00;100148.44;21088090;28;20443;-80
2022/09/10 00:58:03;;;;;;;5.43;0.93;;;;;;;14.71;100.00;100149.31;21066957;28;20105;-78
2022/09/10 01:08:04;;;;;;;4.90;1.20;;;;;;;14.74;100.00;100142.19;21086791;28;20051;-80
2022/09/10 01:18:06;;;;;;;2.35;0.90;;;;;;;14.72;100.00;100146.66;21090873;28;20048;-80
2022/09/10 01:28:07;;;;;;;7.68;1.27;;;;;;;14.76;100.00;100144.78;21096599;28;20062;-80
2022/09/10 01:38:08;;;;;;;4.80;1.10;;;;;;;14.66;100.00;100153.91;21105946;28;20074;-80
2022/09/10 01:48:10;;;;;;;4.25;1.10;;;;;;;14.69;100.00;100164.34;21111025;28;20057;-80
2022/09/10 01:58:11;;;;;;;8.15;1.00;;;;;;;14.71;100.00;100149.31;21085555;28;20052;-80
2022/09/10 02:08:12;;;;;;;5.13;1.10;;;;;;;14.68;100.00;100147.69;21080312;28;20044;-80
2022/09/10 02:18:14;;;;;;;6.05;1.30;;;;;;;14.62;100.00;100145.28;21082585;28;20056;-80
2022/09/10 02:28:15;;;;;;;5.45;1.60;;;;;;;14.65;100.00;100149.56;21103224;28;20048;-80
2022/09/10 02:38:17;;;;;;;4.97;1.30;;;;;;;14.63;100.00;100139.94;21107318;28;20215;-80
2022/09/10 02:48:19;;;;;;;5.88;1.55;;;;;;;14.60;100.00;100133.91;21105792;28;20044;-80
2022/09/10 02:58:21;;;;;;;4.85;1.50;;;;;;;14.54;100.00;100124.47;21104690;28;20144;-80
2022/09/10 03:08:22;;;;;;;8.25;1.35;;;;;;;14.56;100.00;100122.66;21101433;28;20094;-80
2022/09/10 03:18:23;;;;;;;5.00;1.50;;;;;;;14.53;100.00;100122.75;21084096;28;20084;-80
2022/09/10 03:28:25;;;;;;;5.55;1.45;;;;;;;14.61;100.00;100125.09;21087641;28;20556;-80
2022/09/10 03:38:26;;;;;;;7.30;1.60;;;;;;;14.65;100.00;100133.75;21101802;28;20041;-80
2022/09/10 03:48:28;;;;;;;3.92;1.52;;;;;;;14.62;100.00;100138.22;21101897;28;20047;-80
2022/09/10 03:58:31;;;;;;;4.90;1.80;;;;;;;14.77;100.00;100136.81;21103062;28;20055;-80
2022/09/10 04:08:32;;;;;;;5.20;1.83;;;;;;;14.75;100.00;100143.03;21102914;28;20040;-80
2022/09/10 04:18:34;;;;;;;4.05;1.30;;;;;;;14.78;100.00;100143.78;21097779;28;20548;-80
2022/09/10 04:28:35;;;;;;;7.07;1.98;;;;;;;14.80;100.00;100157.78;21107889;28;20048;-81
2022/09/10 04:38:39;;;;;;;5.82;1.50;;;;;;;14.79;100.00;100149.91;21110722;28;20044;-80
2022/09/10 04:48:40;;;;;;;4.70;1.43;;;;;;;14.71;100.00;100162.50;21097214;28;20044;-81
2022/09/10 04:58:42;;;;;;;9.60;1.77;;;;;;;14.71;100.00;100162.50;21109146;28;20048;-80
2022/09/10 05:08:44;;;;;;;3.75;1.60;;;;;;;14.82;100.00;100173.53;21104603;28;20036;-80
2022/09/10 05:18:47;;;;;;;5.25;1.70;;;;;;;14.83;100.00;100162.94;21099623;28;20074;-80
2022/09/10 05:28:48;;;;;;;5.68;1.80;;;;;;;14.90;100.00;100168.84;21094297;28;20107;-80
2022/09/10 05:38:49;;;;;;;5.65;1.40;;;;;;;14.98;100.00;100165.91;21088663;28;20048;-80
2022/09/10 05:48:54;;;;;;;6.60;1.50;;;;;;;15.00;100.00;100175.50;21081975;28;20048;-80
2022/09/10 05:58:55;;;;;;;8.20;1.50;;;;;;;15.13;100.00;100182.00;21089971;28;20055;-80
2022/09/10 06:08:57;;;;;;;7.95;1.10;;;;;;;15.09;100.00;100188.34;21108605;28;20408;-80
2022/09/10 06:18:58;;;;;;;5.60;1.25;;;;;;;15.14;100.00;100193.44;21109390;28;20048;-81
2022/09/10 06:28:59;;;;;;;7.53;1.33;;;;;;;15.17;100.00;100208.28;21105246;28;20047;-81
2022/09/10 06:39:02;;;;;;;4.07;1.33;;;;;;;15.27;100.00;100214.91;21104151;28;20051;-80
2022/09/10 06:49:03;;;;;;;5.53;1.50;;;;;;;15.34;100.00;100226.97;21102741;28;20624;-81
2022/09/10 06:59:05;;;;;;;6.97;1.40;;;;;;;15.46;100.00;100223.84;21097514;28;20509;-80
2022/09/10 07:09:06;;;;;;;2.78;1.15;;;;;;;15.92;100.00;100240.56;21094225;28;20514;-79
2022/09/10 07:19:07;;;;;;;4.00;1.10;;;;;;;16.58;100.00;100241.31;21089093;28;20063;-80
2022/09/10 07:29:09;;;;;;;4.82;1.25;;;;;;;16.67;100.00;100251.50;21086899;28;20052;-80
2022/09/10 07:39:10;;;;;;;4.25;1.23;;;;;;;16.52;100.00;100252.13;21079718;28;20435;-80
2022/09/10 07:49:12;;;;;;;4.68;1.20;;;;;;;16.41;100.00;100262.31;21072980;28;20044;-80
2022/09/10 07:59:14;;;;;;;5.47;1.30;;;;;;;16.76;100.00;100267.91;21105553;28;20040;-80
2022/09/10 08:09:15;;;;;;;2.40;1.00;;;;;;;16.83;100.00;100272.00;21094241;28;20048;-80
2022/09/10 08:19:16;;;;;;;7.88;1.23;;;;;;;16.91;100.00;100267.22;21113520;28;20485;-80
2022/09/10 08:29:18;;;;;;;8.23;1.08;;;;;;;17.68;100.00;100275.22;21091294;28;20382;-84
2022/09/10 08:39:19;;;;;;;5.07;0.90;;;;;;;17.68;100.00;100275.22;21108934;28;20040;-81
2022/09/10 08:49:21;;;;;;;4.03;0.93;;;;;;;17.84;100.00;100272.72;21106943;28;20074;-80
2022/09/10 08:59:22;;;;;;;4.97;1.02;;;;;;;17.87;100.00;100277.84;21100149;28;20056;-80
2022/09/10 09:09:23;;;;;;;7.20;1.20;;;;;;;18.03;100.00;100281.50;21093527;28;20066;-79
2022/09/10 09:19:25;;;;;;;7.40;1.13;;;;;;;18.02;100.00;100279.78;21092161;28;20048;-79
2022/09/10 09:29:26;;;;;;;6.57;1.20;;;;;;;17.95;100.00;100287.16;21085150;28;20448;-79
2022/09/10 09:39:28;;;;;;;12.10;1.83;;;;;;;18.35;100.00;100287.00;21084623;28;20504;-81
2022/09/10 09:49:29;;;;;;;4.47;1.30;;;;;;;18.83;100.00;100277.50;21084470;28;20093;-80
2022/09/10 09:59:30;;;;;;;7.38;1.38;;;;;;;18.82;100.00;100273.16;21065339;28;20094;-79
2022/09/10 10:09:32;;;;;;;5.43;1.23;;;;;;;18.99;100.00;100273.16;21086163;28;20431;-82
2022/09/10 10:19:33;;;;;;;5.97;1.15;;;;;;;18.49;100.00;100270.41;21067973;28;20056;-82
2022/09/10 10:29:34;;;;;;;8.25;1.70;;;;;;;18.94;100.00;100246.00;21074332;28;20083;-81
2022/09/10 10:39:36;;;;;;;5.07;1.23;;;;;;;19.37;100.00;100243.69;21055537;28;20047;-82
2022/09/10 10:49:37;;;;;;;6.55;1.33;;;;;;;19.46;93.71;100236.09;21060327;28;20745;-81
2022/09/10 10:59:39;;;;;;;5.60;1.10;;;;;;;19.21;95.93;100238.34;21085574;28;20048;-82
2022/09/10 11:09:40;;;;;;;3.97;1.20;;;;;;;19.40;93.74;100246.16;21101329;28;20040;-82
2022/09/10 11:19:41;;;;;;;6.47;1.30;;;;;;;19.26;93.52;100238.09;21072491;28;20095;-82
2022/09/10 11:29:43;;;;;;;6.25;1.00;;;;;;;19.02;95.39;100238.50;21090054;28;20052;-82
2022/09/10 11:39:45;;;;;;;7.20;1.35;;;;;;;19.53;89.13;100222.47;21105030;28;20036;-81
2022/09/10 11:49:47;;;;;;;8.68;2.05;;;;;;;19.86;87.66;100230.38;21098581;28;20074;-80
2022/09/10 11:59:48;;;;;;;4.90;1.30;;;;;;;20.08;87.50;100230.84;21102763;28;20130;-80
2022/09/10 12:09:49;;;;;;;4.93;1.00;;;;;;;19.33;91.28;100237.69;21107846;28;20101;-81
2022/09/10 12:19:51;;;;;;;6.05;1.30;;;;;;;19.46;91.47;100253.81;21085335;28;20413;-80
2022/09/10 12:29:53;;;;;;;7.85;1.10;;;;;;;18.89;100.00;100264.81;21100455;28;20512;-80
2022/09/10 12:39:54;;;;;;;9.57;1.20;;;;;;;19.62;100.00;100232.59;21080004;28;20093;-80
2022/09/10 12:49:56;;;;;;;7.13;1.80;;;;;;;20.10;98.02;100228.97;21113194;28;20126;-80
2022/09/10 12:59:57;;;;;;;4.80;1.20;;;;;;;19.71;94.08;100221.47;21093982;28;20052;-80
2022/09/10 13:09:59;;;;;;;7.22;1.70;;;;;;;18.54;100.00;100252.47;21101725;28;20048;-80
2022/09/10 13:20:01;;;;;;;2.85;1.00;;;;;;;18.10;100.00;100252.91;21108720;28;20047;-80
2022/09/10 13:30:02;;;;;;;5.28;1.10;;;;;;;18.66;100.00;100251.84;21090466;28;20069;-83
2022/09/10 13:40:05;;;;;;;6.63;1.80;;;;;;;18.59;100.00;100255.72;21096387;28;20101;-80
2022/09/10 13:50:06;;;;;;;3.53;1.10;;;;;;;18.46;100.00;100247.56;21086836;28;20105;-80
2022/09/10 14:00:08;;;;;;;5.97;1.63;;;;;;;18.40;100.00;100246.09;21085216;28;20048;-79
2022/09/10 14:10:09;;;;;;;6.07;0.90;;;;;;;18.73;100.00;100232.03;21083479;28;20101;-79
2022/09/10 14:20:10;;;;;;;5.82;1.38;;;;;;;19.17;100.00;100218.25;21082594;28;20048;-82
2022/09/10 14:30:12;;;;;;;3.72;0.73;;;;;;;19.09;100.00;100212.47;21080837;28;20386;-80
2022/09/10 14:40:14;;;;;;;3.28;0.95;;;;;;;18.92;100.00;100227.53;21078675;28;20067;-78
2022/09/10 14:50:16;;;;;;;3.28;0.75;;;;;;;18.62;100.00;100232.56;21078397;28;20150;-80
2022/09/10 15:00:17;;;;;;;2.63;0.80;;;;;;;18.58;100.00;100230.16;21077608;28;20063;-79
2022/09/10 15:10:19;;;;;;;3.42;0.90;;;;;;;19.02;100.00;100233.19;21075642;28;20055;-79
2022/09/10 15:20:20;;;;;;;3.80;1.10;;;;;;;18.96;100.00;100236.16;21078591;28;20051;-79
2022/09/10 15:30:28;;;;;;;3.90;0.73;;;;;;;18.91;100.00;100231.09;21061533;28;20101;-79
2022/09/10 15:40:30;;;;;;;4.32;0.80;;;;;;;18.87;100.00;100232.19;21074859;28;20047;-79
2022/09/10 15:50:31;;;;;;;2.88;0.75;;;;;;;18.89;100.00;100237.44;21055115;28;20524;-79
2022/09/10 16:00:32;;;;;;;3.30;0.90;;;;;;;18.78;100.00;100243.31;21073414;28;20040;-80
2022/09/10 16:10:34;;;;;;;3.58;0.90;;;;;;;18.70;100.00;100243.69;21054938;28;20408;-79
2022/09/10 16:20:35;;;;;;;3.25;1.10;;;;;;;18.49;100.00;100233.28;21068770;28;20236;-78
2022/09/10 16:30:37;;;;;;;6.50;1.45;;;;;;;18.28;100.00;100236.09;21087781;28;20036;-78
2022/09/10 16:40:38;;;;;;;7.10;1.60;;;;;;;17.85;100.00;100247.94;21087829;28;20056;-79
2022/09/10 16:50:39;;;;;;;4.38;1.80;;;;;;;17.72;100.00;100252.06;21089497;28;20047;-81
2022/09/10 17:00:41;;;;;;;6.60;1.98;;;;;;;17.53;100.00;100260.00;21093012;28;20074;-80
2022/09/10 17:10:43;;;;;;;5.95;1.80;;;;;;;17.35;100.00;100264.41;21088845;28;20108;-80
2022/09/10 17:20:47;;;;;;;8.25;2.45;;;;;;;17.30;100.00;100277.84;21096089;28;20390;-80
2022/09/10 17:30:48;;;;;;;5.87;2.40;;;;;;;17.21;100.00;100288.84;21100684;28;20523;-80
2022/09/10 17:40:51;;;;;;;8.68;1.70;;;;;;;17.06;100.00;100292.16;21097948;28;20059;-80
2022/09/10 17:50:52;;;;;;;4.53;1.35;;;;;;;16.86;100.00;100277.16;21075914;28;20082;-79
2022/09/10 18:00:53;;;;;;;7.65;1.70;;;;;;;16.76;100.00;100273.19;21089902;28;20048;-80
2022/09/10 18:10:55;;;;;;;5.25;1.40;;;;;;;16.68;100.00;100289.38;21086760;28;20485;-79
2022/09/10 18:20:57;;;;;;;6.30;2.00;;;;;;;16.61;100.00;100288.75;21065693;28;20056;-80
2022/09/10 18:30:58;;;;;;;5.03;1.40;;;;;;;16.53;100.00;100297.91;21081023;28;20654;-79
2022/09/10 18:41:01;;;;;;;6.72;1.60;;;;;;;16.60;100.00;100304.69;21080646;28;20062;-79
2022/09/10 18:51:02;;;;;;;5.70;1.58;;;;;;;16.54;100.00;100313.72;21079008;28;20069;-79
2022/09/10 19:01:03;;;;;;;6.35;1.80;;;;;;;16.53;100.00;100326.97;21058978;28;20051;-81
2022/09/10 19:11:07;;;;;;;6.43;2.03;;;;;;;16.55;100.00;100326.00;21078115;28;20040;-79
2022/09/10 19:21:10;;;;;;;5.70;1.60;;;;;;;16.49;100.00;100352.72;21077407;28;20135;-79
2022/09/10 19:31:11;;;;;;;4.55;1.35;;;;;;;16.58;100.00;100340.91;21075578;28;20070;-79
2022/09/10 19:41:12;;;;;;;5.55;1.30;;;;;;;16.62;100.00;100343.34;21057954;28;20630;-79
2022/09/10 19:51:14;;;;;;;5.13;2.08;;;;;;;16.59;100.00;100343.47;21068185;28;20036;-79
2022/09/10 20:01:15;;;;;;;6.05;1.33;;;;;;;16.61;100.00;100341.63;21090383;28;20071;-79
2022/09/10 20:11:16;;;;;;;4.47;1.65;;;;;;;16.54;100.00;100340.16;21088858;28;20082;-78
2022/09/10 20:21:18;;;;;;;3.50;1.42;;;;;;;16.58;100.00;100360.25;21091209;28;20044;-80
2022/09/10 20:31:20;;;;;;;5.63;1.67;;;;;;;16.26;100.00;100371.25;21100244;28;20055;-80
2022/09/10 20:41:28;;;;;;;5.70;2.00;;;;;;;16.19;100.00;100386.47;21135403;28;20414;-83
2022/09/10 20:51:30;;;;;;;7.03;2.33;;;;;;;16.09;100.00;100390.41;21136150;28;20099;-81
2022/09/10 21:01:32;;;;;;;5.53;2.20;;;;;;;16.15;100.00;100393.69;21135646;28;20051;-80
2022/09/10 21:11:33;;;;;;;7.00;1.90;;;;;;;15.97;100.00;100402.31;21139598;28;20055;-80
2022/09/10 21:21:34;;;;;;;7.00;2.10;;;;;;;15.83;100.00;100401.97;21132903;28;20048;-82
2022/09/10 21:31:36;;;;;;;5.28;2.30;;;;;;;15.84;100.00;100401.03;21131508;28;20044;-81
2022/09/10 21:41:38;;;;;;;8.73;2.90;;;;;;;15.75;100.00;100406.66;21133868;28;20076;-80
2022/09/10 21:51:40;;;;;;;5.22;2.00;;;;;;;15.73;100.00;100414.66;21114670;28;20130;-81
2022/09/10 22:01:42;;;;;;;4.80;2.30;;;;;;;15.84;100.00;100416.88;21131522;28;20059;-80
2022/09/10 22:11:45;;;;;;;7.82;2.13;;;;;;;15.75;100.00;100406.66;21117566;28;20047;-80
2022/09/10 22:21:47;;;;;;;7.28;2.60;;;;;;;15.54;100.00;100401.22;21131406;28;20243;-81
2022/09/10 22:31:49;;;;;;;6.60;2.40;;;;;;;15.56;100.00;100407.28;21130000;28;20070;-80
2022/09/10 22:41:50;;;;;;;9.23;2.70;;;;;;;15.59;100.00;100396.63;21098757;28;20055;-80
2022/09/10 22:51:51;;;;;;;11.80;2.80;;;;;;;15.53;100.00;100391.59;21087163;28;20119;-81
2022/09/10 23:01:53;;;;;;;6.50;2.78;;;;;;;15.54;100.00;100406.50;21097988;28;20093;-81
2022/09/10 23:11:55;;;;;;;5.70;2.55;;;;;;;15.50;100.00;100409.31;21080402;28;20044;-80
2022/09/10 23:21:56;;;;;;;8.98;2.72;;;;;;;15.59;100.00;100415.13;21101345;28;20044;-82
2022/09/10 23:31:58;;;;;;;7.15;2.42;;;;;;;15.53;100.00;100417.97;21078152;28;20044;-80
2022/09/10 23:41:59;;;;;;;6.45;2.70;;;;;;;15.53;100.00;100432.97;21097504;28;20044;-80
2022/09/10 23:52:00;;;;;;;6.38;3.05;;;;;;;15.47;100.00;100412.91;21082323;28;20077;-81
